Terminal Aerodrome Forecast
Issued by NWS

Home | Current Version | Previous Version | Text Only | Print | Product List | Glossary On
Versions: 1 2 3 4 5 6 7 8 9 10 11 12 13 14 15 16 17 18 19 20 21 22 23 24 25 26
777
FTUS46 KMTR 200534
TAFSJC
TAF
KSJC 200534Z 2006/2106 31004KT P6SM BKN012
     FM201100 VRB03KT P6SM OVC015
     FM201700 29008KT P6SM SCT015 BKN120
     FM201900 29015KT P6SM BKN200
     FM210400 29010KT P6SM SCT200=

USA.gov is the U.S. government's official web portal to all federal, state and local government web resources and services.